Time;durP1;ratioP1;P1;durP2;ratioP2;P2;SDS_P1;SDS_P2;PMS_P1;PMS_P2;Temp;Humidity;BMP_temperature;BMP_pressure;BME280_temperature;BME280_humidity;BME280_pressure;Samples;Min_cycle;Max_cycle;Signal;HPM_P1;HPM_P2
2022/04/05 00:00:42;;;;;;;;;11.00;11.00;;;;;11.90;52.51;100827.53;2085940;28;46147;-53
2022/04/05 00:01:42;;;;;;;;;12.75;12.75;;;;;11.90;52.79;100829.31;2089095;28;47503;-54
2022/04/05 00:02:43;;;;;;;;;11.25;11.25;;;;;11.90;52.73;100826.66;2103520;27;47745;-53
2022/04/05 00:03:43;;;;;;;;;10.75;9.50;;;;;11.89;52.73;100824.91;2101673;28;47463;-51
2022/04/05 00:04:44;;;;;;;;;11.50;11.50;;;;;11.89;52.81;100825.78;2102284;28;47436;-55
2022/04/05 00:05:44;;;;;;;;;13.50;12.00;;;;;11.90;52.82;100829.31;2100899;28;47644;-53
2022/04/05 00:06:45;;;;;;;;;11.50;11.50;;;;;11.90;52.74;100826.66;2102261;27;47395;-53
2022/04/05 00:07:45;;;;;;;;;12.75;12.75;;;;;11.89;53.04;100827.59;2100959;28;48321;-56
2022/04/05 00:08:46;;;;;;;;;12.75;12.50;;;;;11.89;52.81;100830.25;2102480;27;48070;-57
2022/04/05 00:09:46;;;;;;;;;13.25;12.75;;;;;11.89;52.98;100830.25;2099613;27;47189;-54
2022/04/05 00:10:47;;;;;;;;;13.25;13.25;;;;;11.88;52.98;100825.84;2102365;28;47603;-53
2022/04/05 00:11:47;;;;;;;;;16.00;13.50;;;;;11.89;52.90;100830.25;2100806;28;47658;-53
2022/04/05 00:12:48;;;;;;;;;17.25;14.25;;;;;11.88;53.25;100828.50;2101944;28;47415;-56
2022/04/05 00:13:48;;;;;;;;;13.00;12.00;;;;;11.88;53.00;100826.72;2103020;27;48765;-55
2022/04/05 00:14:49;;;;;;;;;14.75;14.75;;;;;11.88;53.14;100832.03;2092545;28;46207;-54
2022/04/05 00:15:49;;;;;;;;;11.75;11.75;;;;;11.90;53.25;100829.31;2092694;28;47123;-53
2022/04/05 00:16:50;;;;;;;;;14.00;13.00;;;;;11.89;53.04;100824.91;2101091;27;47147;-53
2022/04/05 00:17:50;;;;;;;;;13.25;12.75;;;;;11.90;53.22;100827.53;2081386;28;47810;-51
2022/04/05 00:18:50;;;;;;;;;14.50;13.50;;;;;11.91;53.12;100825.75;2083970;28;47854;-55
2022/04/05 00:19:51;;;;;;;;;12.50;11.50;;;;;11.91;53.48;100823.97;2099778;27;47697;-54
2022/04/05 00:20:51;;;;;;;;;12.25;12.25;;;;;11.90;53.42;100818.69;2103911;27;47889;-54
2022/04/05 00:21:54;;;;;;;;;15.50;14.75;;;;;11.90;53.50;100824.00;2101262;27;47804;-54
2022/04/05 00:22:55;;;;;;;;;12.60;12.60;;;;;11.90;53.29;100822.22;2100752;27;47874;-55
2022/04/05 00:23:55;;;;;;;;;12.40;12.40;;;;;11.91;53.63;100831.94;2100543;27;47799;-53
2022/04/05 00:24:56;;;;;;;;;14.25;11.00;;;;;11.92;53.66;100830.16;2100946;27;47239;-55
2022/04/05 00:25:56;;;;;;;;;12.50;11.75;;;;;11.91;53.55;100823.09;2102252;27;47965;-55
2022/04/05 00:26:57;;;;;;;;;14.00;14.00;;;;;11.90;53.75;100827.53;2100960;27;48036;-55
2022/04/05 00:27:58;;;;;;;;;13.00;13.00;;;;;11.90;53.77;100829.31;2100976;27;47672;-52
2022/04/05 00:28:58;;;;;;;;;11.40;11.40;;;;;11.89;53.75;100831.13;2099978;27;47191;-55
2022/04/05 00:30:01;;;;;;;;;12.00;12.00;;;;;11.89;53.79;100819.59;2099345;27;47489;-54
2022/04/05 00:31:02;;;;;;;;;11.80;11.80;;;;;11.89;53.77;100825.78;2089278;28;47160;-54
2022/04/05 00:32:03;;;;;;;;;13.50;13.50;;;;;11.89;53.91;100822.25;2083342;28;47513;-55
2022/04/05 00:33:03;;;;;;;;;10.50;10.50;;;;;11.89;54.10;100823.13;2095328;28;47661;-53
2022/04/05 00:34:04;;;;;;;;;10.25;10.00;;;;;11.89;53.95;100830.25;2104511;27;47588;-53
2022/04/05 00:35:05;;;;;;;;;14.75;13.50;;;;;11.89;54.09;100830.25;2104801;27;47991;-52
2022/04/05 00:36:06;;;;;;;;;13.60;13.60;;;;;11.89;54.04;100833.78;2104507;27;48380;-54
2022/04/05 00:37:06;;;;;;;;;13.00;13.00;;;;;11.89;53.85;100833.78;2111960;27;47956;-52
2022/04/05 00:38:08;;;;;;;;;14.25;14.25;;;;;11.90;53.84;100826.66;2101387;28;48024;-55
2022/04/05 00:39:09;;;;;;;;;12.60;11.20;;;;;11.90;54.17;100830.19;2098224;28;47291;-53
2022/04/05 00:40:10;;;;;;;;;11.60;11.60;;;;;11.90;54.18;100829.31;2097528;27;47744;-53
2022/04/05 00:41:11;;;;;;;;;12.00;12.00;;;;;11.90;54.16;100832.84;2103325;27;47669;-53
2022/04/05 00:42:11;;;;;;;;;11.00;11.00;;;;;11.90;54.07;100822.22;2103741;27;47890;-56
2022/04/05 00:43:12;;;;;;;;;12.50;11.25;;;;;11.90;54.12;100830.19;2109298;27;47706;-54
2022/04/05 00:44:12;;;;;;;;;14.50;14.25;;;;;11.90;54.41;100834.66;2107826;27;48341;-53
2022/04/05 00:45:16;;;;;;;;;15.25;15.25;;;;;11.90;54.41;100822.22;2099187;27;47322;-52
2022/04/05 00:46:16;;;;;;;;;11.40;10.60;;;;;11.91;54.52;100820.44;2108886;27;47582;-53
2022/04/05 00:47:19;;;;;;;;;12.50;12.50;;;;;11.91;54.43;100821.31;2104332;27;45892;-54
2022/04/05 00:48:50;;;;;;;;;11.20;10.40;;;;;11.91;54.74;100826.63;2112827;27;46145;-54
2022/04/05 00:49:53;;;;;;;;;10.00;10.00;;;;;11.90;54.62;100814.25;2105477;27;47659;-53
2022/04/05 00:50:53;;;;;;;;;12.00;11.80;;;;;11.89;54.91;100825.78;2101076;27;48217;-54
2022/04/05 00:51:54;;;;;;;;;12.50;11.75;;;;;11.89;54.71;100820.47;2103983;27;48018;-53
2022/04/05 00:52:54;;;;;;;;;10.50;9.25;;;;;11.89;54.79;100823.13;2109801;27;47839;-53
2022/04/05 00:53:59;;;;;;;;;13.75;12.25;;;;;11.90;54.73;100824.00;2105107;27;47479;-54
2022/04/05 00:55:02;;;;;;;;;10.40;10.00;;;;;11.91;54.70;100817.78;2092227;28;47210;-54
2022/04/05 00:56:05;;;;;;;;;12.80;11.60;;;;;11.92;54.78;100827.50;2087666;28;45803;-54
2022/04/05 00:57:10;;;;;;;;;10.40;10.40;;;;;11.92;54.97;100823.06;2093182;27;47686;-54
2022/04/05 00:58:14;;;;;;;;;13.20;12.80;;;;;11.92;55.06;100814.19;2104656;27;47881;-54
2022/04/05 00:59:18;;;;;;;;;12.80;12.80;;;;;11.92;54.99;100817.72;2105724;27;47758;-54
2022/04/05 01:00:18;;;;;;;;;9.60;9.60;;;;;11.93;54.87;100819.47;2099469;27;48014;-55
2022/04/05 01:01:21;;;;;;;;;11.75;11.75;;;;;11.93;55.25;100815.94;2111532;27;47899;-53
2022/04/05 01:02:25;;;;;;;;;12.20;11.60;;;;;11.93;55.42;100816.81;2102803;28;47563;-53
2022/04/05 01:03:26;;;;;;;;;12.40;11.40;;;;;11.93;55.31;100819.47;2103898;28;47951;-51
2022/04/05 01:04:29;;;;;;;;;12.60;11.80;;;;;11.93;55.57;100810.63;2103771;28;47738;-53
2022/04/05 01:05:30;;;;;;;;;11.00;9.20;;;;;11.93;55.19;100810.63;2103008;28;48131;-53
2022/04/05 01:06:37;;;;;;;;;10.40;10.40;;;;;11.94;55.22;100817.69;2102858;28;46790;-54
2022/04/05 01:07:40;;;;;;;;;14.60;12.80;;;;;11.93;55.44;100816.81;2102724;28;48255;-55
2022/04/05 01:08:43;;;;;;;;;11.80;11.20;;;;;11.93;55.42;100814.16;2102741;28;48076;-51
2022/04/05 01:09:45;;;;;;;;;12.40;12.40;;;;;11.94;55.91;100815.03;2103743;28;47090;-53
2022/04/05 01:10:46;;;;;;;;;9.20;9.20;;;;;11.94;55.51;100821.25;2103994;28;48476;-56
2022/04/05 01:11:46;;;;;;;;;11.80;10.40;;;;;11.95;55.68;100812.34;2102735;28;47649;-54
2022/04/05 01:12:49;;;;;;;;;11.00;9.75;;;;;11.94;55.72;100815.94;2103123;28;47655;-54
2022/04/05 01:13:50;;;;;;;;;13.40;13.40;;;;;11.95;55.76;100816.81;2107196;27;47700;-54
2022/04/05 01:14:52;;;;;;;;;11.20;11.20;;;;;11.93;55.68;100814.16;2104085;28;47798;-54
2022/04/05 01:15:52;;;;;;;;;12.00;12.00;;;;;11.92;55.76;100815.06;2101814;28;48357;-55
2022/04/05 01:16:52;;;;;;;;;11.50;11.00;;;;;11.92;55.81;100814.19;2102435;28;47009;-52
2022/04/05 01:17:55;;;;;;;;;9.25;9.25;;;;;11.92;55.97;100814.19;2103517;28;47467;-52
2022/04/05 01:18:56;;;;;;;;;13.80;13.80;;;;;11.93;55.90;100813.28;2103551;27;47515;-56
2022/04/05 01:19:57;;;;;;;;;13.20;12.00;;;;;11.93;56.00;100810.63;2102075;28;47569;-54
2022/04/05 01:20:57;;;;;;;;;11.00;11.00;;;;;11.93;56.03;100807.97;2103351;28;48005;-55
2022/04/05 01:21:58;;;;;;;;;11.75;10.00;;;;;11.92;56.19;100808.88;2102000;28;47516;-55
2022/04/05 01:22:59;;;;;;;;;14.40;14.40;;;;;11.91;56.46;100807.13;2098869;28;47867;-53
2022/04/05 01:24:05;;;;;;;;;15.50;14.00;;;;;11.91;56.64;100805.34;2090873;28;48037;-55
2022/04/05 01:25:05;;;;;;;;;10.60;10.00;;;;;11.90;56.21;100808.06;2093320;28;48499;-55
2022/04/05 01:26:06;;;;;;;;;12.75;12.00;;;;;11.89;56.51;100811.63;2101338;28;47786;-54
2022/04/05 01:27:06;;;;;;;;;11.25;10.00;;;;;11.88;56.55;100805.44;2103505;28;47453;-55
2022/04/05 01:28:07;;;;;;;;;10.00;10.00;;;;;11.89;56.61;100801.00;2097606;28;48553;-54
2022/04/05 01:29:08;;;;;;;;;10.50;10.50;;;;;11.90;56.72;100805.38;2095853;28;47948;-52
2022/04/05 01:30:10;;;;;;;;;12.00;12.00;;;;;11.89;56.63;100798.31;2097943;28;47361;-53
2022/04/05 01:31:10;;;;;;;;;10.20;9.80;;;;;11.90;57.00;100795.63;2099293;28;47701;-55
2022/04/05 01:32:11;;;;;;;;;10.75;9.50;;;;;11.91;57.16;100807.13;2103741;28;47509;-52
2022/04/05 01:33:13;;;;;;;;;11.20;10.40;;;;;11.91;56.66;100804.47;2096975;28;47866;-55
2022/04/05 01:34:15;;;;;;;;;12.60;11.40;;;;;11.91;56.80;100794.72;2103626;28;45235;-54
2022/04/05 01:35:16;;;;;;;;;15.60;12.60;;;;;11.91;56.94;100794.72;2103679;28;45263;-52
2022/04/05 01:36:23;;;;;;;;;10.25;10.25;;;;;11.90;56.92;100792.97;2103642;28;48105;-54
2022/04/05 01:37:23;;;;;;;;;10.80;9.00;;;;;11.89;57.17;100787.69;2101355;28;48020;-55
2022/04/05 01:38:24;;;;;;;;;11.75;11.75;;;;;11.88;57.08;100784.16;2099063;28;49123;-55
2022/04/05 01:39:27;;;;;;;;;9.50;9.50;;;;;11.88;56.99;100784.16;2102861;28;48010;-54
2022/04/05 01:40:28;;;;;;;;;12.80;11.60;;;;;11.88;57.40;100789.47;2103046;28;47161;-55
2022/04/05 01:41:28;;;;;;;;;12.50;12.00;;;;;11.87;57.15;100795.72;2101761;27;48125;-54
2022/04/05 01:42:30;;;;;;;;;10.75;10.75;;;;;11.89;57.39;100785.03;2100293;28;47469;-52
2022/04/05 01:43:30;;;;;;;;;11.20;11.20;;;;;11.89;57.22;100793.88;2103495;28;48089;-54
2022/04/05 01:44:33;;;;;;;;;11.25;11.25;;;;;11.89;57.27;100785.03;2101852;28;47822;-57
2022/04/05 01:45:34;;;;;;;;;10.40;10.40;;;;;11.91;57.33;100783.19;2103770;28;47124;-52
2022/04/05 01:46:35;;;;;;;;;12.40;12.40;;;;;11.90;57.33;100782.34;2103381;28;46933;-54
2022/04/05 01:47:38;;;;;;;;;13.00;11.25;;;;;11.90;57.23;100787.66;2103451;28;47524;-55
2022/04/05 01:48:39;;;;;;;;;11.00;11.00;;;;;11.90;57.48;100782.34;2099832;28;47771;-53
2022/04/05 01:49:42;;;;;;;;;14.00;13.00;;;;;11.90;57.51;100784.13;2103601;28;47435;-53
2022/04/05 01:50:43;;;;;;;;;11.40;11.40;;;;;11.90;57.33;100781.47;2101977;28;47881;-54
2022/04/05 01:51:45;;;;;;;;;12.60;11.80;;;;;11.90;57.52;100776.13;2102087;28;48055;-54
2022/04/05 01:52:45;;;;;;;;;10.20;10.20;;;;;11.90;57.43;100773.47;2103769;28;47699;-55
2022/04/05 01:53:45;;;;;;;;;11.00;11.00;;;;;11.91;57.48;100780.53;2101793;28;47215;-54
2022/04/05 01:54:46;;;;;;;;;12.00;11.00;;;;;11.90;57.55;100782.34;2103486;28;47307;-54
2022/04/05 01:55:46;;;;;;;;;13.75;13.50;;;;;11.91;57.83;100783.19;2098620;28;48046;-54
2022/04/05 01:56:49;;;;;;;;;13.25;13.25;;;;;11.91;57.73;100776.09;2086122;28;47681;-54
2022/04/05 01:57:49;;;;;;;;;7.00;7.00;;;;;11.92;57.47;100780.50;2093818;28;47949;-53
2022/04/05 01:58:50;;;;;;;;;15.75;13.00;;;;;11.91;57.62;100784.06;2096823;28;47435;-53
2022/04/05 01:59:50;;;;;;;;;13.00;13.00;;;;;11.92;57.43;100785.81;2102772;28;47446;-50
2022/04/05 02:00:51;;;;;;;;;12.75;12.75;;;;;11.93;57.75;100784.03;2102461;28;47670;-52
2022/04/05 02:01:52;;;;;;;;;11.00;11.00;;;;;11.93;57.73;100776.06;2103287;28;48176;-55
2022/04/05 02:02:53;;;;;;;;;14.20;12.00;;;;;11.93;57.84;100787.56;2099216;28;48163;-51
2022/04/05 02:03:53;;;;;;;;;13.50;13.50;;;;;11.94;57.48;100785.78;2084732;28;47706;-53
2022/04/05 02:04:54;;;;;;;;;14.00;10.75;;;;;11.94;57.54;100781.34;2084658;28;47946;-54
2022/04/05 02:05:54;;;;;;;;;12.50;11.75;;;;;11.94;57.75;100780.44;2103370;28;47401;-53
2022/04/05 02:06:55;;;;;;;;;11.50;11.50;;;;;11.95;57.52;100780.44;2093529;28;47173;-54
2022/04/05 02:07:55;;;;;;;;;12.00;12.00;;;;;11.95;57.77;100775.13;2093792;28;47866;-51
2022/04/05 02:08:56;;;;;;;;;11.75;9.75;;;;;11.95;57.76;100774.25;2103393;28;47467;-53
2022/04/05 02:09:56;;;;;;;;;11.50;10.50;;;;;11.95;57.82;100777.78;2101961;28;47979;-50
2022/04/05 02:10:57;;;;;;;;;14.25;13.00;;;;;11.95;57.94;100776.91;2095324;28;47099;-52
2022/04/05 02:11:58;;;;;;;;;10.75;10.75;;;;;11.95;57.77;100779.56;2102768;28;47539;-53
2022/04/05 02:12:59;;;;;;;;;11.80;11.80;;;;;11.95;57.89;100780.44;2085327;28;48300;-52
2022/04/05 02:13:59;;;;;;;;;16.00;14.75;;;;;11.94;58.14;100776.03;2084972;28;47592;-53
2022/04/05 02:15:00;;;;;;;;;15.00;14.00;;;;;11.95;58.19;100775.13;2099026;27;47509;-54
2022/04/05 02:16:02;;;;;;;;;15.00;13.00;;;;;11.96;58.13;100781.31;2102387;27;47627;-54
2022/04/05 02:17:04;;;;;;;;;11.40;11.00;;;;;11.95;58.19;100768.94;2096956;28;47378;-56
2022/04/05 02:18:04;;;;;;;;;10.80;10.80;;;;;11.94;58.27;100768.06;2094350;28;48084;-54
2022/04/05 02:19:05;;;;;;;;;12.25;12.25;;;;;11.94;58.03;100761.84;2109966;27;47404;-51
2022/04/05 02:20:06;;;;;;;;;13.50;13.50;;;;;11.95;58.51;100771.59;2105120;27;47555;-52
2022/04/05 02:21:07;;;;;;;;;14.40;12.40;;;;;11.95;58.52;100771.59;2092046;28;47697;-54
2022/04/05 02:22:08;;;;;;;;;12.40;11.40;;;;;11.93;58.16;100768.94;2091130;27;45412;-54
2022/04/05 02:23:08;;;;;;;;;14.75;14.75;;;;;11.95;58.39;100772.47;2103859;27;48048;-52
2022/04/05 02:24:08;;;;;;;;;13.00;13.00;;;;;11.96;58.28;100773.34;2111326;27;47644;-52
2022/04/05 02:25:09;;;;;;;;;11.25;10.75;;;;;11.95;58.29;100775.13;2103095;27;47922;-53
2022/04/05 02:26:11;;;;;;;;;13.00;13.00;;;;;11.96;58.54;100778.66;2108918;27;47145;-50
2022/04/05 02:27:11;;;;;;;;;15.40;14.20;;;;;11.96;58.54;100768.03;2098482;27;47993;-54
2022/04/05 02:28:12;;;;;;;;;13.50;13.50;;;;;11.96;58.46;100779.53;2103973;27;47576;-51
2022/04/05 02:29:12;;;;;;;;;14.00;14.00;;;;;11.95;58.63;100768.94;2101082;27;47160;-56
2022/04/05 02:30:13;;;;;;;;;13.00;13.00;;;;;11.96;58.70;100768.03;2109020;27;47697;-53
2022/04/05 02:31:13;;;;;;;;;14.00;14.00;;;;;11.96;58.44;100774.22;2103489;27;47649;-55
2022/04/05 02:32:14;;;;;;;;;13.75;12.50;;;;;11.96;58.67;100768.03;2112110;27;47529;-52
2022/04/05 02:33:14;;;;;;;;;12.25;11.25;;;;;11.97;58.67;100778.59;2105047;27;47378;-53
2022/04/05 02:34:14;;;;;;;;;14.25;14.25;;;;;11.96;58.86;100768.88;2108600;27;47542;-53
2022/04/05 02:35:15;;;;;;;;;12.00;11.50;;;;;11.96;58.64;100774.22;2099170;27;47579;-54
2022/04/05 02:36:15;;;;;;;;;15.50;14.00;;;;;11.97;58.82;100769.75;2103532;27;47311;-52
2022/04/05 02:37:16;;;;;;;;;14.25;14.00;;;;;11.97;58.83;100777.75;2101368;27;47572;-52
2022/04/05 02:38:16;;;;;;;;;12.50;11.75;;;;;11.97;58.59;100767.09;2108958;27;47750;-53
2022/04/05 02:39:17;;;;;;;;;11.75;11.75;;;;;11.97;58.81;100767.09;2107136;27;47063;-55
2022/04/05 02:40:17;;;;;;;;;10.75;10.75;;;;;11.96;58.75;100758.25;2107936;27;47356;-55
2022/04/05 02:41:17;;;;;;;;;13.00;13.00;;;;;11.98;58.86;100760.88;2094925;28;47399;-54
2022/04/05 02:42:18;;;;;;;;;13.00;13.00;;;;;11.98;58.78;100756.41;2095010;28;46752;-53
2022/04/05 02:43:18;;;;;;;;;15.75;14.25;;;;;11.98;58.92;100763.53;2110776;27;47409;-53
2022/04/05 02:44:19;;;;;;;;;15.75;14.25;;;;;12.00;58.89;100759.03;2106918;27;45279;-52
2022/04/05 02:45:19;;;;;;;;;13.00;13.00;;;;;11.98;58.83;100756.41;2079431;28;47794;-52
2022/04/05 02:46:20;;;;;;;;;16.50;13.25;;;;;12.00;58.85;100754.59;2089894;28;47753;-54
2022/04/05 02:47:20;;;;;;;;;15.50;14.00;;;;;12.00;58.70;100759.91;2093607;28;47447;-54
2022/04/05 02:48:24;;;;;;;;;11.75;11.75;;;;;12.00;59.34;100756.38;2092163;28;47665;-53
2022/04/05 02:49:25;;;;;;;;;11.60;11.60;;;;;11.98;58.97;100753.75;2105137;27;48044;-55
2022/04/05 02:50:26;;;;;;;;;10.50;10.50;;;;;11.99;58.77;100757.28;2103281;27;47527;-55
2022/04/05 02:51:26;;;;;;;;;13.40;12.40;;;;;11.98;58.92;100755.53;2102937;27;47650;-53
2022/04/05 02:52:29;;;;;;;;;10.00;10.00;;;;;11.98;58.98;100750.22;2088720;28;45903;-56
2022/04/05 02:53:29;;;;;;;;;12.20;12.20;;;;;11.98;59.00;100753.75;2087137;28;47977;-55
2022/04/05 02:54:30;;;;;;;;;13.00;13.00;;;;;11.98;58.87;100748.44;2108999;27;47629;-54
2022/04/05 02:55:30;;;;;;;;;14.50;14.25;;;;;11.99;59.14;100741.34;2103273;27;47737;-53
2022/04/05 02:56:31;;;;;;;;;13.50;12.25;;;;;12.00;58.87;100748.41;2111144;27;47540;-54
2022/04/05 02:57:36;;;;;;;;;11.80;11.80;;;;;12.00;59.03;100743.94;2109639;27;47426;-54
2022/04/05 02:58:37;;;;;;;;;10.60;10.60;;;;;12.01;59.03;100753.66;2106903;27;47807;-52
2022/04/05 02:59:38;;;;;;;;;11.60;11.60;;;;;12.01;59.10;100748.34;2106534;27;47789;-53
2022/04/05 03:00:39;;;;;;;;;13.50;12.25;;;;;12.01;59.39;100751.00;2105116;27;47370;-52
2022/04/05 03:01:40;;;;;;;;;11.60;11.60;;;;;12.02;59.26;100746.56;2107552;27;47864;-54
2022/04/05 03:02:40;;;;;;;;;14.00;14.00;;;;;12.00;59.07;100749.25;2103367;27;46471;-54
2022/04/05 03:03:41;;;;;;;;;6.25;6.00;;;;;12.01;59.19;100745.69;2103322;28;47327;-55
2022/04/05 03:04:41;;;;;;;;;13.75;12.50;;;;;12.01;59.14;100745.69;2097619;28;47646;-53
2022/04/05 03:05:41;;;;;;;;;11.75;11.75;;;;;12.01;59.20;100750.13;2104039;28;47892;-54
2022/04/05 03:06:42;;;;;;;;;15.75;12.75;;;;;12.02;59.36;100746.56;2104200;28;47280;-50
2022/04/05 03:07:42;;;;;;;;;13.50;12.00;;;;;12.02;59.45;100749.22;2102727;27;47928;-53
2022/04/05 03:08:43;;;;;;;;;11.50;11.50;;;;;12.02;59.46;100758.06;2104345;27;47727;-56
2022/04/05 03:09:44;;;;;;;;;14.60;11.80;;;;;12.02;59.44;100758.06;2104317;28;47711;-54
2022/04/05 03:10:45;;;;;;;;;12.75;12.00;;;;;12.01;59.30;100756.31;2095148;28;48052;-54
2022/04/05 03:11:46;;;;;;;;;12.40;12.40;;;;;12.02;59.40;100751.88;2095324;28;48338;-54
2022/04/05 03:12:46;;;;;;;;;12.00;12.00;;;;;12.02;59.53;100754.53;2100853;28;47818;-54
2022/04/05 03:13:47;;;;;;;;;12.75;12.25;;;;;12.02;59.44;100749.22;2103539;27;48450;-56
2022/04/05 03:14:47;;;;;;;;;13.00;13.00;;;;;12.01;59.63;100747.47;2104313;28;47856;-51
2022/04/05 03:15:48;;;;;;;;;9.75;9.75;;;;;12.01;59.40;100744.81;2103311;28;47431;-52
2022/04/05 03:16:48;;;;;;;;;13.00;13.00;;;;;12.01;59.75;100747.47;2104311;28;47561;-55
2022/04/05 03:17:50;;;;;;;;;14.00;12.00;;;;;12.01;59.70;100745.69;2104716;28;47638;-54
2022/04/05 03:18:50;;;;;;;;;13.20;13.20;;;;;12.01;59.76;100744.81;2101722;28;47817;-56
2022/04/05 03:19:51;;;;;;;;;14.50;14.50;;;;;11.99;59.66;100744.00;2101215;28;48078;-54
2022/04/05 03:20:52;;;;;;;;;14.00;13.00;;;;;12.00;59.73;100748.41;2102735;28;47951;-56
2022/04/05 03:21:53;;;;;;;;;14.80;13.40;;;;;12.00;59.90;100743.06;2103465;28;47628;-55
2022/04/05 03:22:55;;;;;;;;;15.50;14.25;;;;;11.98;60.19;100743.13;2096305;28;47948;-54
2022/04/05 03:23:55;;;;;;;;;12.00;12.00;;;;;11.98;60.06;100745.78;2102634;28;47638;-54
2022/04/05 03:24:56;;;;;;;;;15.50;13.75;;;;;11.97;59.90;100736.06;2103564;28;48107;-54
2022/04/05 03:25:56;;;;;;;;;13.50;13.00;;;;;11.98;60.17;100744.91;2104507;28;47073;-53
2022/04/05 03:26:56;;;;;;;;;13.50;13.50;;;;;11.97;60.30;100740.50;2103782;28;47430;-53
2022/04/05 03:28:03;;;;;;;;;14.25;13.00;;;;;11.96;59.95;100744.09;2103525;28;47879;-54
2022/04/05 03:29:04;;;;;;;;;18.20;15.20;;;;;11.96;60.21;100741.44;2104462;28;47708;-52
2022/04/05 03:30:05;;;;;;;;;15.00;15.00;;;;;11.96;60.52;100741.44;2103516;28;48023;-56
2022/04/05 03:31:05;;;;;;;;;13.60;11.60;;;;;11.95;60.58;100743.22;2087699;28;47608;-56
2022/04/05 03:32:06;;;;;;;;;13.75;13.50;;;;;11.95;60.58;100739.69;2088582;28;48147;-54
2022/04/05 03:33:06;;;;;;;;;17.75;16.50;;;;;11.96;60.40;100736.09;2104085;28;47563;-54
2022/04/05 03:34:07;;;;;;;;;14.50;12.75;;;;;11.95;60.53;100737.03;2103585;28;47922;-53
2022/04/05 03:35:08;;;;;;;;;12.50;12.00;;;;;11.96;60.24;100739.63;2103965;28;47604;-55
2022/04/05 03:36:08;;;;;;;;;14.60;14.60;;;;;11.96;60.59;100734.31;2104237;28;47890;-53
2022/04/05 03:37:09;;;;;;;;;12.50;12.50;;;;;11.97;60.56;100737.84;2104414;28;47647;-52
2022/04/05 03:38:09;;;;;;;;;13.25;13.25;;;;;11.95;60.86;100731.69;2099831;28;47535;-55
2022/04/05 03:39:13;;;;;;;;;11.75;11.75;;;;;11.94;60.66;100729.94;2100390;28;48226;-55
2022/04/05 03:40:14;;;;;;;;;13.00;12.80;;;;;11.94;60.87;100735.25;2104053;28;48065;-54
2022/04/05 03:41:14;;;;;;;;;12.00;12.00;;;;;11.94;60.84;100735.25;2106643;27;47584;-51
2022/04/05 03:42:15;;;;;;;;;12.00;12.00;;;;;11.91;61.00;100730.88;2111536;27;47285;-55
2022/04/05 03:43:15;;;;;;;;;11.25;11.00;;;;;11.92;60.69;100737.06;2104551;28;47681;-51
2022/04/05 03:44:16;;;;;;;;;11.75;11.75;;;;;11.91;60.82;100730.88;2104136;28;47131;-55
2022/04/05 03:45:16;;;;;;;;;14.00;13.00;;;;;11.91;60.95;100730.88;2103025;28;47803;-52
2022/04/05 03:46:17;;;;;;;;;12.25;12.25;;;;;11.90;61.05;100726.50;2104111;28;47443;-54
2022/04/05 03:47:17;;;;;;;;;16.25;13.50;;;;;11.90;61.24;100726.50;2102683;28;47939;-51
2022/04/05 03:48:18;;;;;;;;;10.75;9.75;;;;;11.90;60.89;100730.94;2099783;28;48198;-54
2022/04/05 03:49:19;;;;;;;;;15.75;15.75;;;;;11.89;60.90;100729.19;2097660;28;47378;-55
2022/04/05 03:50:19;;;;;;;;;12.75;12.75;;;;;11.88;61.37;100728.31;2103982;28;47156;-55
2022/04/05 03:51:20;;;;;;;;;12.75;12.00;;;;;11.88;61.44;100730.97;2103562;28;48008;-55
2022/04/05 03:52:20;;;;;;;;;12.75;12.75;;;;;11.86;61.23;100724.84;2104238;27;47311;-52
2022/04/05 03:53:21;;;;;;;;;10.50;10.25;;;;;11.85;61.10;100723.09;2090626;28;47406;-55
2022/04/05 03:54:21;;;;;;;;;11.75;11.00;;;;;11.86;61.43;100723.97;2088781;28;47437;-54
2022/04/05 03:55:22;;;;;;;;;10.75;10.75;;;;;11.84;61.24;100716.03;2104038;27;47815;-55
2022/04/05 03:56:23;;;;;;;;;11.00;11.00;;;;;11.86;61.21;100718.66;2100534;28;47290;-53
2022/04/05 03:57:24;;;;;;;;;17.80;16.60;;;;;11.85;61.16;100717.78;2104052;28;47792;-55
2022/04/05 03:58:24;;;;;;;;;13.50;13.50;;;;;11.85;61.31;100720.44;2103488;27;47446;-54
2022/04/05 03:59:24;;;;;;;;;11.75;11.75;;;;;11.85;61.39;100715.13;2104210;28;47898;-54
2022/04/05 04:00:25;;;;;;;;;9.50;9.50;;;;;11.85;61.24;100714.25;2100740;28;47899;-54
2022/04/05 04:01:25;;;;;;;;;13.50;13.50;;;;;11.84;61.22;100718.69;2102636;28;47330;-55
2022/04/05 04:02:26;;;;;;;;;13.50;13.50;;;;;11.85;61.43;100722.22;2103017;28;47743;-53
2022/04/05 04:03:26;;;;;;;;;11.50;11.50;;;;;11.84;61.27;100721.34;2100151;28;47597;-54
2022/04/05 04:04:27;;;;;;;;;11.00;10.50;;;;;11.84;61.98;100720.47;2098444;28;47528;-56
2022/04/05 04:05:27;;;;;;;;;13.75;12.00;;;;;11.84;61.57;100723.13;2103344;28;48121;-55
2022/04/05 04:06:28;;;;;;;;;12.00;11.00;;;;;11.83;61.63;100721.41;2104135;28;47990;-55
2022/04/05 04:07:28;;;;;;;;;12.00;12.00;;;;;11.82;61.69;100720.53;2089194;28;47782;-54
2022/04/05 04:08:29;;;;;;;;;12.25;12.25;;;;;11.83;61.36;100722.25;2086240;28;46658;-55
2022/04/05 04:09:29;;;;;;;;;10.75;10.75;;;;;11.83;61.67;100721.41;2104095;28;47915;-54
2022/04/05 04:10:29;;;;;;;;;14.50;12.00;;;;;11.82;61.59;100725.84;2103952;27;47531;-54
2022/04/05 04:11:30;;;;;;;;;15.75;13.75;;;;;11.82;61.83;100719.66;2096107;28;48252;-55
2022/04/05 04:12:31;;;;;;;;;11.50;11.25;;;;;11.82;61.61;100719.66;2101068;28;47578;-51
2022/04/05 04:13:32;;;;;;;;;11.60;11.60;;;;;11.81;61.80;100724.06;2106660;27;46539;-55
2022/04/05 04:14:33;;;;;;;;;14.75;13.00;;;;;11.82;61.58;100723.19;2103895;28;48168;-54
2022/04/05 04:15:33;;;;;;;;;12.20;12.20;;;;;11.82;61.81;100720.53;2096168;28;48430;-55
2022/04/05 04:16:34;;;;;;;;;13.00;11.25;;;;;11.83;62.15;100718.72;2101845;28;47950;-53
2022/04/05 04:17:34;;;;;;;;;10.75;10.75;;;;;11.82;61.96;100722.31;2103700;27;47868;-55
2022/04/05 04:18:35;;;;;;;;;10.00;10.00;;;;;11.83;61.80;100719.59;2100940;28;47122;-55
2022/04/05 04:19:35;;;;;;;;;12.25;12.25;;;;;11.84;62.10;100725.78;2104202;28;47973;-51
2022/04/05 04:20:38;;;;;;;;;11.75;11.00;;;;;11.84;61.95;100720.47;2100253;28;47541;-54
2022/04/05 04:21:38;;;;;;;;;11.60;11.60;;;;;11.83;62.25;100721.41;2095846;28;47929;-56
2022/04/05 04:22:39;;;;;;;;;11.75;11.75;;;;;11.83;62.31;100724.91;2099409;28;47757;-56
2022/04/05 04:23:40;;;;;;;;;12.00;11.75;;;;;11.81;62.22;100721.41;2101862;28;47731;-54
2022/04/05 04:24:40;;;;;;;;;12.00;11.00;;;;;11.81;62.23;100720.53;2102760;28;47101;-52
2022/04/05 04:25:41;;;;;;;;;11.00;11.00;;;;;11.79;62.46;100713.47;2098692;28;47887;-54
2022/04/05 04:26:41;;;;;;;;;12.75;12.00;;;;;11.80;62.58;100711.69;2100320;28;47188;-54
2022/04/05 04:27:42;;;;;;;;;14.00;14.00;;;;;11.79;62.29;100713.47;2103989;28;47794;-53
2022/04/05 04:28:42;;;;;;;;;11.25;11.00;;;;;11.79;62.73;100713.47;2088903;28;47791;-52
2022/04/05 04:29:42;;;;;;;;;12.75;12.75;;;;;11.79;62.55;100709.94;2076711;28;47549;-54
2022/04/05 04:30:43;;;;;;;;;13.25;11.75;;;;;11.79;62.54;100710.81;2094968;28;47569;-54
2022/04/05 04:31:43;;;;;;;;;11.50;10.25;;;;;11.78;62.70;100710.81;2100649;28;47636;-54
2022/04/05 04:32:44;;;;;;;;;11.00;11.00;;;;;11.78;62.58;100713.47;2097086;28;47359;-55
2022/04/05 04:33:44;;;;;;;;;13.25;11.50;;;;;11.77;62.78;100714.41;2104367;27;47708;-54
2022/04/05 04:34:44;;;;;;;;;11.75;11.75;;;;;11.75;62.71;100709.13;2106563;27;47884;-53
2022/04/05 04:35:45;;;;;;;;;14.25;13.00;;;;;11.75;62.65;100708.25;2103643;28;47659;-53
2022/04/05 04:36:46;;;;;;;;;12.00;12.00;;;;;11.75;62.95;100708.25;2088384;28;47338;-53
2022/04/05 04:37:46;;;;;;;;;11.25;10.25;;;;;11.74;62.95;100715.34;2087953;28;48389;-54